createdAt,value
2023-04-06T00:03:44.408Z,100.00
2023-04-06T00:08:46.372Z,100.00
2023-04-06T00:13:48.293Z,100.00
2023-04-06T00:18:50.216Z,100.00
2023-04-06T00:23:52.094Z,100.00
2023-04-06T00:28:54.031Z,100.00
2023-04-06T00:33:56.232Z,100.00
2023-04-06T00:38:58.225Z,100.00
2023-04-06T00:44:00.318Z,100.00
2023-04-06T00:49:02.254Z,100.00
2023-04-06T00:54:04.383Z,100.00
2023-04-06T00:59:08.205Z,100.00
2023-04-06T01:04:10.804Z,100.00
2023-04-06T01:09:17.449Z,100.00
2023-04-06T01:14:20.430Z,100.00
2023-04-06T01:19:29.291Z,100.00
2023-04-06T01:24:31.986Z,100.00
2023-04-06T01:30:12.327Z,100.00
2023-04-06T01:35:28.067Z,100.00
2023-04-06T01:40:45.784Z,100.00
2023-04-06T01:45:48.221Z,100.00
2023-04-06T01:50:55.429Z,100.00
2023-04-06T01:56:03.298Z,100.00
2023-04-06T02:01:08.921Z,100.00
2023-04-06T02:06:23.537Z,100.00
2023-04-06T02:11:25.825Z,100.00
2023-04-06T02:16:30.941Z,100.00
2023-04-06T02:21:32.986Z,100.00
2023-04-06T02:26:35.014Z,100.00
2023-04-06T02:31:36.961Z,100.00
2023-04-06T02:36:40.058Z,100.00
2023-04-06T02:41:43.083Z,100.00
2023-04-06T02:46:47.110Z,100.00
2023-04-06T02:51:49.048Z,100.00
2023-04-06T02:56:58.460Z,100.00
2023-04-06T03:02:09.201Z,100.00
2023-04-06T03:07:11.945Z,100.00
2023-04-06T03:12:14.628Z,100.00
2023-04-06T03:17:36.468Z,100.00
2023-04-06T03:22:42.566Z,100.00
2023-04-06T03:27:48.449Z,100.00
2023-04-06T03:32:53.983Z,100.00
2023-04-06T03:37:58.761Z,100.00
2023-04-06T03:43:01.379Z,100.00
2023-04-06T03:48:04.615Z,100.00
2023-04-06T03:53:10.590Z,100.00
2023-04-06T03:58:12.503Z,100.00
2023-04-06T04:03:14.547Z,100.00
2023-04-06T04:08:17.679Z,100.00
2023-04-06T04:13:20.391Z,100.00
2023-04-06T04:18:25.466Z,100.00
2023-04-06T04:23:27.412Z,100.00
2023-04-06T04:28:29.608Z,100.00
2023-04-06T04:33:31.970Z,100.00
2023-04-06T04:38:37.162Z,100.00
2023-04-06T04:43:39.376Z,100.00
2023-04-06T04:48:41.725Z,100.00
2023-04-06T04:53:44.332Z,100.00
2023-04-06T04:58:55.449Z,100.00
2023-04-06T05:03:58.731Z,100.00
2023-04-06T05:09:01.092Z,100.00
2023-04-06T05:14:07.240Z,100.00
2023-04-06T05:19:09.696Z,100.00
2023-04-06T05:24:17.494Z,100.00
2023-04-06T05:29:22.354Z,100.00
2023-04-06T05:34:24.884Z,100.00
2023-04-06T05:39:27.326Z,100.00
2023-04-06T05:44:29.758Z,100.00
2023-04-06T05:49:43.020Z,100.00
2023-04-06T05:54:51.186Z,100.00
2023-04-06T05:59:53.388Z,100.00
2023-04-06T06:04:57.652Z,100.00
2023-04-06T06:10:01.819Z,100.00
2023-04-06T06:15:09.370Z,100.00
2023-04-06T06:20:16.276Z,100.00
2023-04-06T06:25:19.401Z,100.00
2023-04-06T06:30:23.560Z,100.00
2023-04-06T06:35:26.703Z,100.00
2023-04-06T06:40:29.387Z,100.00
2023-04-06T06:45:32.270Z,100.00
2023-04-06T06:50:34.533Z,100.00
2023-04-06T06:55:36.456Z,100.00
2023-04-06T07:00:38.463Z,100.00
2023-04-06T07:05:46.480Z,100.00
2023-04-06T07:10:48.898Z,100.00
2023-04-06T07:15:51.750Z,100.00
2023-04-06T07:20:53.672Z,100.00
2023-04-06T07:25:55.734Z,100.00
2023-04-06T07:30:57.458Z,100.00
2023-04-06T07:36:00.131Z,100.00
2023-04-06T07:41:04.058Z,100.00
2023-04-06T07:46:07.210Z,100.00
2023-04-06T07:51:09.908Z,100.00
2023-04-06T07:56:16.478Z,100.00
2023-04-06T08:01:18.294Z,100.00
2023-04-06T08:06:20.224Z,100.00
2023-04-06T08:11:22.395Z,100.00
2023-04-06T08:16:25.033Z,100.00
2023-04-06T08:21:26.766Z,100.00
2023-04-06T08:26:29.116Z,100.00
2023-04-06T08:31:31.677Z,100.00
2023-04-06T08:36:33.581Z,100.00
2023-04-06T08:41:35.852Z,100.00
2023-04-06T08:46:37.655Z,100.00
2023-04-06T08:51:39.784Z,81.33
2023-04-06T08:56:42.312Z,77.46
2023-04-06T09:01:46.959Z,73.30
2023-04-06T09:06:48.894Z,79.39
2023-04-06T09:11:52.572Z,82.70
2023-04-06T09:16:54.262Z,76.47
2023-04-06T09:22:08.340Z,72.84
2023-04-06T09:27:10.721Z,65.35
2023-04-06T09:32:13.226Z,56.38
2023-04-06T09:37:20.016Z,56.79
2023-04-06T09:42:26.595Z,64.77
2023-04-06T09:47:29.724Z,65.16
2023-04-06T09:52:42.919Z,54.78
2023-04-06T09:58:01.550Z,53.62
2023-04-06T10:03:11.598Z,64.63
2023-04-06T10:08:18.388Z,68.51
2023-04-06T10:13:20.665Z,67.54
2023-04-06T10:24:46.609Z,72.66
2023-04-06T10:35:19.876Z,57.55
2023-04-06T10:40:56.840Z,53.39
2023-04-06T10:46:01.716Z,56.79
2023-04-06T10:51:44.469Z,57.20
2023-04-06T10:56:53.407Z,55.94
2023-04-06T11:01:56.986Z,57.65
2023-04-06T11:06:59.047Z,65.04
2023-04-06T11:13:10.408Z,54.33
2023-04-06T11:18:33.954Z,39.59
2023-04-06T11:36:10.593Z,34.96
2023-04-06T11:41:14.172Z,34.58
2023-04-06T11:46:20.808Z,34.70
2023-04-06T11:51:31.926Z,36.76
2023-04-06T11:56:33.941Z,30.86
2023-04-06T12:01:49.097Z,30.48
2023-04-06T12:06:52.171Z,32.21
2023-04-06T12:11:53.977Z,29.98
2023-04-06T12:16:55.916Z,35.18
2023-04-06T12:22:00.090Z,30.91
2023-04-06T12:27:09.387Z,27.81
2023-04-06T12:32:12.773Z,28.47
2023-04-06T12:37:14.459Z,29.96
2023-04-06T12:42:16.832Z,30.15
2023-04-06T12:47:19.091Z,29.33
2023-04-06T12:52:21.326Z,27.17
2023-04-06T12:57:23.034Z,26.40
2023-04-06T13:02:27.979Z,29.10
2023-04-06T13:07:29.723Z,25.24
2023-04-06T13:12:31.462Z,26.95
2023-04-06T13:17:33.186Z,25.89
2023-04-06T13:22:35.143Z,26.64
2023-04-06T13:27:36.878Z,26.73
2023-04-06T13:32:38.595Z,27.92
2023-04-06T13:37:40.427Z,25.46
2023-04-06T13:42:44.951Z,25.07
2023-04-06T13:47:46.895Z,24.32
2023-04-06T13:52:49.991Z,23.95
2023-04-06T13:57:52.152Z,24.19
2023-04-06T14:02:56.969Z,24.67
2023-04-06T14:07:58.664Z,24.41
2023-04-06T14:13:00.313Z,26.39
2023-04-06T14:18:02.567Z,25.29
2023-04-06T14:23:06.857Z,23.68
2023-04-06T14:28:08.513Z,24.96
2023-04-06T14:33:10.150Z,24.68
2023-04-06T14:38:11.820Z,23.97
2023-04-06T14:43:13.454Z,25.07
2023-04-06T14:48:16.779Z,24.24
2023-04-06T14:53:18.420Z,22.17
2023-04-06T14:58:20.910Z,22.48
2023-04-06T15:03:22.800Z,24.60
2023-04-06T15:08:24.989Z,25.88
2023-04-06T15:13:26.591Z,29.68
2023-04-06T15:18:29.633Z,31.15
2023-04-06T15:23:31.383Z,34.23
2023-04-06T15:28:33.023Z,39.72
2023-04-06T15:33:34.603Z,44.37
2023-04-06T15:38:36.249Z,44.90
2023-04-06T15:43:39.062Z,43.83
2023-04-06T15:48:42.198Z,47.77
2023-04-06T15:53:44.226Z,52.00
2023-04-06T15:58:46.035Z,50.37
2023-04-06T16:03:48.093Z,53.46
2023-04-06T16:08:49.814Z,52.34
2023-04-06T16:13:55.185Z,61.83
2023-04-06T16:18:57.283Z,59.97
2023-04-06T16:23:59.905Z,62.10
2023-04-06T16:29:02.104Z,63.37
2023-04-06T16:34:03.850Z,65.30
2023-04-06T16:39:05.462Z,64.77
2023-04-06T16:44:07.302Z,67.10
2023-04-06T16:49:08.954Z,72.50
2023-04-06T16:54:10.763Z,74.50
2023-04-06T16:59:12.584Z,66.52
2023-04-06T17:04:14.297Z,70.84
2023-04-06T17:09:16.482Z,70.90
2023-04-06T17:14:19.111Z,82.54
2023-04-06T17:19:20.735Z,76.46
2023-04-06T17:24:22.397Z,86.00
2023-04-06T17:29:24.071Z,90.62
2023-04-06T17:34:26.225Z,92.00
2023-04-06T17:39:27.805Z,98.75
2023-04-06T17:44:29.396Z,100.00
2023-04-06T17:49:31.330Z,98.95
2023-04-06T17:54:36.935Z,100.00
2023-04-06T17:59:38.805Z,100.00
2023-04-06T18:04:44.298Z,100.00
2023-04-06T18:09:46.044Z,100.00
2023-04-06T18:14:47.672Z,100.00
2023-04-06T18:19:49.298Z,100.00
2023-04-06T18:24:51.252Z,100.00
2023-04-06T18:29:53.323Z,100.00
2023-04-06T18:34:57.508Z,100.00
2023-04-06T18:39:59.136Z,100.00
2023-04-06T18:45:00.916Z,100.00
2023-04-06T18:50:02.552Z,100.00
2023-04-06T18:55:04.625Z,100.00
2023-04-06T19:00:06.927Z,100.00
2023-04-06T19:05:10.747Z,100.00
2023-04-06T19:10:12.593Z,100.00
2023-04-06T19:15:14.665Z,100.00
2023-04-06T19:20:16.589Z,100.00
2023-04-06T19:25:18.854Z,100.00
2023-04-06T19:30:20.812Z,100.00
2023-04-06T19:35:22.750Z,100.00
2023-04-06T19:40:24.593Z,100.00
2023-04-06T19:45:26.473Z,100.00
2023-04-06T19:50:28.444Z,100.00
2023-04-06T19:55:30.991Z,100.00
2023-04-06T20:00:32.945Z,100.00
2023-04-06T20:05:34.972Z,100.00
2023-04-06T20:10:36.880Z,100.00
2023-04-06T20:15:38.756Z,100.00
2023-04-06T20:20:40.828Z,100.00
2023-04-06T20:25:42.711Z,100.00
2023-04-06T20:30:44.591Z,100.00
2023-04-06T20:35:46.364Z,100.00
2023-04-06T20:40:48.772Z,100.00
2023-04-06T20:45:57.800Z,100.00
2023-04-06T20:50:59.639Z,100.00
2023-04-06T20:56:02.522Z,100.00
2023-04-06T21:01:15.044Z,100.00
2023-04-06T21:06:16.928Z,100.00
2023-04-06T21:11:18.775Z,100.00
2023-04-06T21:16:21.006Z,100.00
2023-04-06T21:21:22.945Z,100.00
2023-04-06T21:26:24.771Z,100.00
2023-04-06T21:31:26.662Z,100.00
2023-04-06T21:36:28.790Z,100.00
2023-04-06T21:41:31.079Z,100.00
2023-04-06T21:46:33.414Z,100.00
2023-04-06T21:51:35.362Z,100.00
2023-04-06T21:56:37.272Z,100.00
2023-04-06T22:01:39.221Z,100.00
2023-04-06T22:06:41.953Z,100.00
2023-04-06T22:11:43.770Z,100.00
2023-04-06T22:16:46.007Z,100.00
2023-04-06T22:21:48.008Z,100.00
2023-04-06T22:26:50.019Z,100.00
2023-04-06T22:31:51.955Z,100.00
2023-04-06T22:36:53.816Z,100.00
2023-04-06T22:41:55.662Z,100.00
2023-04-06T22:46:57.556Z,100.00
2023-04-06T22:51:59.392Z,100.00
2023-04-06T22:57:01.247Z,100.00
2023-04-06T23:02:03.469Z,100.00
2023-04-06T23:07:06.044Z,100.00
2023-04-06T23:12:08.108Z,100.00
2023-04-06T23:17:09.995Z,100.00
2023-04-06T23:22:11.910Z,100.00
2023-04-06T23:27:13.743Z,100.00
2023-04-06T23:32:15.818Z,100.00
2023-04-06T23:37:17.771Z,100.00
2023-04-06T23:42:19.633Z,100.00
2023-04-06T23:47:21.482Z,100.00
2023-04-06T23:52:23.357Z,100.00
2023-04-06T23:57:25.384Z,100.00
